METAR Data
IDs: Format: Raw Decoded Include TAF

Data at: 0237 UTC 25 Jan 2020

PAKV 250153Z AUTO 23004KT 10SM CLR M31/M34 A3014 RMK SLP215 T13111339 TSNO $ VIA AUTODIAL
PAKV 250053Z AUTO 21003KT 10SM CLR M29/M33 A3013 RMK AO2 SLP212 T12941328 TSNO $
PAKV 242353Z AUTO 22003KT 10SM CLR M29/M33 A3013 RMK AO2 SLP212 T12891328 11267 21344 58006 TSNO $
PAKV 242253Z AUTO 23003KT 10SM CLR M28/M32 A3014 RMK AO2 SLP217 T12831317 TSNO $
PAKV 242153Z AUTO 22005KT 10SM CLR M29/M32 A3015 RMK AO2 SLP217 T12891322 TSNO $
PAKV 242053Z AUTO 22004KT 10SM CLR M30/M33 A3015 RMK AO2 SLP218 T13001328 53004 TSNO $
PAKV 241953Z AUTO 23005KT 10SM CLR M30/M33 A3014 RMK AO2 SLP215 T13001328 TSNO $
PAKV 241853Z AUTO 23005KT 10SM CLR M31/M34 A3014 RMK AO2 SLP214 T13061344 TSNO $
PAKV 241753Z AUTO 22004KT 10SM CLR M33/M36 A3014 RMK AO2 SLP215 T13331361 11289 21339 56001 TSNO $
PAKV 241653Z AUTO 22004KT 10SM CLR M30/M34 A3014 RMK AO2 SLP214 T13001339 TSNO $
PAKV 241553Z AUTO 21003KT 10SM CLR M33/M36 A3014 RMK AO2 SLP212 T13281361 TSNO $
PAKV 241453Z AUTO 22003KT 10SM CLR M31/M34 A3014 RMK AO2 SLP215 T13061344 53000 TSNO $
PAKV 241353Z AUTO 22004KT 10SM CLR M32/M34 A3014 RMK SLP213 T13171344 TSNO $ VIA AUTODIAL
PAKV 241253Z AUTO 23003KT 10SM CLR M32/M36 A3014 RMK AO2 SLP216 T13221356 TSNO $
PAKV 241153Z AUTO 00000KT 10SM CLR M32/M34 A3014 RMK AO2 SLP214 I6000 T13171344 11244 21333 51008 TSNO $
PAKV 241053Z AUTO 23003KT 10SM CLR M31/M34 A3013 RMK AO2 SLP212 T13111344 TSNO $
PAKV 240953Z AUTO 00000KT CLR M31/M33 A3013 RMK AO2 SLP210 I1000 T13111333 TSNO $
PAKV 240853Z AUTO 22003KT 10SM CLR M29/M32 A3012 RMK AO2 SLP205 T12891317 411891317 53008 TSNO $
PAKV 240753Z AUTO 00000KT 10SM CLR M28/M31 A3011 RMK AO2 SLP202 T12781311 TSNO $
PAKV 240653Z AUTO 00000KT 10SM CLR M28/M31 A3010 RMK AO2 SLP199 T12781306 TSNO
PAKV 240553Z AUTO 00000KT 10SM CLR M26/M28 A3009 RMK AO2 SLP197 T12611283 11189 21272 51006 TSNO
PAKV 240453Z AUTO 00000KT 10SM OVC065 M25/M27 A3009 RMK AO2 SLP196 T12501272 TSNO
PAKV 240353Z AUTO 00000KT 10SM OVC070 M24/M27 A3009 RMK AO2 SLP195 T12441272 TSNO
PAKV 240253Z AUTO 00000KT 10SM OVC070 M24/M26 A3007 RMK AO2 SLP191 T12391261 53004 TSNO
PAKV 240153Z AUTO 00000KT 10SM OVC070 M22/M24 A3006 RMK AO2 SLP186 T12221244 TSNO
PAKV 240053Z AUTO 25003KT 10SM OVC070 M20/M23 A3006 RMK AO2 SLP186 T12001233 TSNO
PAKV 232353Z AUTO 00000KT 10SM OVC070 M19/M23 A3006 RMK AO2 SLP186 T11941228 11189 21211 51012 TSNO
PAKV 232253Z AUTO 00000KT 10SM OVC070 M19/M23 A3005 RMK AO2 SLP183 T11941233 TSNO
PAKV 232153Z AUTO 00000KT 10SM OVC070 M20/M23 A3004 RMK AO2 SLP179 T12001233 TSNO
PAKV 232053Z AUTO 00000KT 10SM OVC070 M21/M24 A3003 RMK AO2 SLP175 T12061239 53010 TSNO
PAKV 231953Z AUTO 00000KT 10SM OVC065 M21/M23 A3002 RMK AO2 SLP171 T12111233 TSNO
PAKV 231853Z AUTO 00000KT 10SM FEW050 OVC060 M21/M23 A3000 RMK AO2 SLP167 T12061228 TSNO
PAKV 231753Z AUTO 00000KT 10SM OVC060 M20/M23 A3000 RMK AO2 SLP164 T12001228 51012 TSNO
PAKV 231653Z AUTO 00000KT 10SM OVC055 M20/M23 A2998 RMK AO2 SLP161 T12001228 TSNO $
PAKV 231553Z AUTO 00000KT 10SM OVC055 M21/M23 A2997 RMK AO2 SLP157 T12061228 TSNO $
PAKV 231453Z AUTO 00000KT 10SM OVC047 M20/M23 A2996 RMK AO2 SLP152 T12001233 51006 TSNO $